sensor_id;sensor_type;location;lat;lon;timestamp;temperature;humidity
1063;DHT22;520;50.932;6.962;2022-08-19T00:03:17;23.60;94.30
1063;DHT22;520;50.932;6.962;2022-08-19T00:06:34;23.50;94.30
1063;DHT22;520;50.932;6.962;2022-08-19T00:10:14;23.50;94.30
1063;DHT22;520;50.932;6.962;2022-08-19T00:20:40;23.30;94.70
1063;DHT22;520;50.932;6.962;2022-08-19T00:27:51;23.30;95.00
1063;DHT22;520;50.932;6.962;2022-08-19T00:31:20;23.20;95.00
1063;DHT22;520;50.932;6.962;2022-08-19T00:34:05;23.20;95.00
1063;DHT22;520;50.932;6.962;2022-08-19T00:37:28;23.20;95.10
1063;DHT22;520;50.932;6.962;2022-08-19T00:39:59;23.20;95.10
1063;DHT22;520;50.932;6.962;2022-08-19T00:42:30;23.20;95.10
1063;DHT22;520;50.932;6.962;2022-08-19T00:45:29;23.10;95.10
1063;DHT22;520;50.932;6.962;2022-08-19T00:52:25;23.10;95.30
1063;DHT22;520;50.932;6.962;2022-08-19T00:55:29;23.10;95.40
1063;DHT22;520;50.932;6.962;2022-08-19T00:58:34;23.00;95.40
1063;DHT22;520;50.932;6.962;2022-08-19T01:01:40;23.00;95.40
1063;DHT22;520;50.932;6.962;2022-08-19T01:04:25;23.00;95.50
1063;DHT22;520;50.932;6.962;2022-08-19T01:07:02;23.00;95.50
1063;DHT22;520;50.932;6.962;2022-08-19T01:10:09;23.00;95.60
1063;DHT22;520;50.932;6.962;2022-08-19T01:13:24;23.00;95.70
1063;DHT22;520;50.932;6.962;2022-08-19T01:16:45;22.90;95.70
1063;DHT22;520;50.932;6.962;2022-08-19T01:19:47;22.90;95.80
1063;DHT22;520;50.932;6.962;2022-08-19T01:25:47;22.90;96.00
1063;DHT22;520;50.932;6.962;2022-08-19T01:29:21;22.90;96.10
1063;DHT22;520;50.932;6.962;2022-08-19T01:32:27;22.80;96.20
1063;DHT22;520;50.932;6.962;2022-08-19T01:35:10;22.80;96.30
1063;DHT22;520;50.932;6.962;2022-08-19T01:41:23;22.80;96.40
1063;DHT22;520;50.932;6.962;2022-08-19T01:44:16;22.90;96.30
1063;DHT22;520;50.932;6.962;2022-08-19T01:46:54;22.80;96.30
1063;DHT22;520;50.932;6.962;2022-08-19T01:49:55;22.80;96.30
1063;DHT22;520;50.932;6.962;2022-08-19T01:53:04;22.90;96.40
1063;DHT22;520;50.932;6.962;2022-08-19T01:56:05;22.90;96.20
1063;DHT22;520;50.932;6.962;2022-08-19T01:59:21;23.10;96.00
1063;DHT22;520;50.932;6.962;2022-08-19T02:02:05;23.10;95.70
1063;DHT22;520;50.932;6.962;2022-08-19T02:04:43;23.10;95.90
1063;DHT22;520;50.932;6.962;2022-08-19T02:07:47;23.10;95.80
1063;DHT22;520;50.932;6.962;2022-08-19T02:10:31;23.00;96.10
1063;DHT22;520;50.932;6.962;2022-08-19T02:13:33;22.80;96.30
1063;DHT22;520;50.932;6.962;2022-08-19T02:16:23;22.80;96.70
1063;DHT22;520;50.932;6.962;2022-08-19T02:19:02;23.00;96.70
1063;DHT22;520;50.932;6.962;2022-08-19T02:22:03;23.00;96.80
1063;DHT22;520;50.932;6.962;2022-08-19T02:24:42;22.70;97.20
1063;DHT22;520;50.932;6.962;2022-08-19T02:27:23;22.60;97.70
1063;DHT22;520;50.932;6.962;2022-08-19T02:30:12;22.70;97.70
1063;DHT22;520;50.932;6.962;2022-08-19T02:32:53;22.60;98.00
1063;DHT22;520;50.932;6.962;2022-08-19T02:35:44;22.50;98.40
1063;DHT22;520;50.932;6.962;2022-08-19T02:39:11;22.40;98.50
1063;DHT22;520;50.932;6.962;2022-08-19T02:41:57;22.40;98.50
1063;DHT22;520;50.932;6.962;2022-08-19T02:44:55;22.70;98.50
1063;DHT22;520;50.932;6.962;2022-08-19T02:47:33;22.70;98.50
1063;DHT22;520;50.932;6.962;2022-08-19T02:50:23;22.70;98.40
1063;DHT22;520;50.932;6.962;2022-08-19T02:53:01;22.40;98.70
1063;DHT22;520;50.932;6.962;2022-08-19T02:59:03;22.10;99.90
1063;DHT22;520;50.932;6.962;2022-08-19T03:02:27;22.00;99.90
1063;DHT22;520;50.932;6.962;2022-08-19T03:05:39;21.90;99.90
1063;DHT22;520;50.932;6.962;2022-08-19T03:11:50;21.90;99.90
1063;DHT22;520;50.932;6.962;2022-08-19T03:14:49;22.00;99.90
1063;DHT22;520;50.932;6.962;2022-08-19T03:17:30;21.90;99.90
1063;DHT22;520;50.932;6.962;2022-08-19T03:20:29;22.00;99.90
1063;DHT22;520;50.932;6.962;2022-08-19T03:23:42;21.90;99.90
1063;DHT22;520;50.932;6.962;2022-08-19T03:26:46;22.00;99.90
1063;DHT22;520;50.932;6.962;2022-08-19T03:29:41;22.00;99.90
1063;DHT22;520;50.932;6.962;2022-08-19T03:32:32;22.00;99.90
1063;DHT22;520;50.932;6.962;2022-08-19T03:35:33;22.00;99.60
1063;DHT22;520;50.932;6.962;2022-08-19T03:38:35;22.10;98.60
1063;DHT22;520;50.932;6.962;2022-08-19T03:41:35;22.00;98.60
1063;DHT22;520;50.932;6.962;2022-08-19T03:44:42;22.00;98.70
1063;DHT22;520;50.932;6.962;2022-08-19T03:47:41;21.90;98.70
1063;DHT22;520;50.932;6.962;2022-08-19T03:50:55;21.90;98.60
1063;DHT22;520;50.932;6.962;2022-08-19T03:53:38;22.20;98.30
1063;DHT22;520;50.932;6.962;2022-08-19T03:56:36;22.40;98.00
1063;DHT22;520;50.932;6.962;2022-08-19T03:59:20;22.10;98.10
1063;DHT22;520;50.932;6.962;2022-08-19T04:02:39;22.00;98.50
1063;DHT22;520;50.932;6.962;2022-08-19T04:05:43;21.90;99.00
1063;DHT22;520;50.932;6.962;2022-08-19T04:08:31;21.80;99.20
1063;DHT22;520;50.932;6.962;2022-08-19T04:11:40;21.80;99.50
1063;DHT22;520;50.932;6.962;2022-08-19T04:20:52;21.60;99.90
1063;DHT22;520;50.932;6.962;2022-08-19T04:23:19;21.60;99.90
1063;DHT22;520;50.932;6.962;2022-08-19T04:26:32;21.50;99.90
1063;DHT22;520;50.932;6.962;2022-08-19T04:32:55;21.50;99.90
1063;DHT22;520;50.932;6.962;2022-08-19T04:36:14;21.50;99.90
1063;DHT22;520;50.932;6.962;2022-08-19T04:38:58;21.60;99.90
1063;DHT22;520;50.932;6.962;2022-08-19T04:48:05;21.60;99.90
1063;DHT22;520;50.932;6.962;2022-08-19T04:51:32;21.60;99.90
1063;DHT22;520;50.932;6.962;2022-08-19T04:54:20;21.70;99.90
1063;DHT22;520;50.932;6.962;2022-08-19T05:00:54;21.80;99.90
1063;DHT22;520;50.932;6.962;2022-08-19T05:03:52;21.70;99.90
1063;DHT22;520;50.932;6.962;2022-08-19T05:07:08;21.80;99.90
1063;DHT22;520;50.932;6.962;2022-08-19T05:10:14;21.70;99.90
1063;DHT22;520;50.932;6.962;2022-08-19T05:12:56;21.70;99.90
1063;DHT22;520;50.932;6.962;2022-08-19T05:19:29;21.70;99.90
1063;DHT22;520;50.932;6.962;2022-08-19T05:26:16;21.70;99.90
1063;DHT22;520;50.932;6.962;2022-08-19T05:29:21;21.70;99.90
1063;DHT22;520;50.932;6.962;2022-08-19T05:32:13;21.70;99.90
1063;DHT22;520;50.932;6.962;2022-08-19T05:34:56;21.70;99.90
1063;DHT22;520;50.932;6.962;2022-08-19T05:37:52;21.70;99.90
1063;DHT22;520;50.932;6.962;2022-08-19T05:41:13;21.60;99.90
1063;DHT22;520;50.932;6.962;2022-08-19T05:44:28;21.60;99.90
1063;DHT22;520;50.932;6.962;2022-08-19T05:55:25;21.50;99.90
1063;DHT22;520;50.932;6.962;2022-08-19T06:16:24;21.80;99.90
1063;DHT22;520;50.932;6.962;2022-08-19T06:19:23;22.60;99.90
1063;DHT22;520;50.932;6.962;2022-08-19T06:22:45;23.20;99.60
1063;DHT22;520;50.932;6.962;2022-08-19T06:38:01;24.70;95.80
1063;DHT22;520;50.932;6.962;2022-08-19T06:49:18;25.70;93.80
1063;DHT22;520;50.932;6.962;2022-08-19T06:52:21;24.80;94.50
1063;DHT22;520;50.932;6.962;2022-08-19T06:56:01;24.30;95.60
1063;DHT22;520;50.932;6.962;2022-08-19T07:03:13;24.20;96.20
1063;DHT22;520;50.932;6.962;2022-08-19T07:06:20;24.70;95.50
1063;DHT22;520;50.932;6.962;2022-08-19T07:10:26;26.10;93.50
1063;DHT22;520;50.932;6.962;2022-08-19T07:13:23;27.60;89.80
1063;DHT22;520;50.932;6.962;2022-08-19T07:16:39;27.20;89.40
1063;DHT22;520;50.932;6.962;2022-08-19T07:19:21;26.70;90.80
1063;DHT22;520;50.932;6.962;2022-08-19T07:24:35;26.70;90.80
1063;DHT22;520;50.932;6.962;2022-08-19T07:27:26;26.80;90.90
1063;DHT22;520;50.932;6.962;2022-08-19T07:30:13;27.00;90.30
1063;DHT22;520;50.932;6.962;2022-08-19T07:40:15;27.00;87.30
1063;DHT22;520;50.932;6.962;2022-08-19T07:43:11;26.30;90.00
1063;DHT22;520;50.932;6.962;2022-08-19T07:46:14;25.90;91.00
1063;DHT22;520;50.932;6.962;2022-08-19T07:49:12;25.90;91.30
1063;DHT22;520;50.932;6.962;2022-08-19T07:55:29;25.00;92.60
1063;DHT22;520;50.932;6.962;2022-08-19T07:58:42;24.90;93.00
1063;DHT22;520;50.932;6.962;2022-08-19T08:01:46;24.40;93.80
1063;DHT22;520;50.932;6.962;2022-08-19T08:04:35;24.10;94.70
1063;DHT22;520;50.932;6.962;2022-08-19T08:08:06;23.90;95.30
1063;DHT22;520;50.932;6.962;2022-08-19T08:11:15;23.80;95.70
1063;DHT22;520;50.932;6.962;2022-08-19T08:14:52;23.80;96.10
1063;DHT22;520;50.932;6.962;2022-08-19T08:18:11;23.80;96.50
1063;DHT22;520;50.932;6.962;2022-08-19T08:21:43;23.70;96.60
1063;DHT22;520;50.932;6.962;2022-08-19T08:24:32;23.90;96.40
1063;DHT22;520;50.932;6.962;2022-08-19T08:27:35;24.30;96.10
1063;DHT22;520;50.932;6.962;2022-08-19T08:30:42;24.90;95.10
1063;DHT22;520;50.932;6.962;2022-08-19T08:36:44;26.50;91.80
1063;DHT22;520;50.932;6.962;2022-08-19T08:43:37;27.50;89.60
1063;DHT22;520;50.932;6.962;2022-08-19T08:46:56;27.40;87.60
1063;DHT22;520;50.932;6.962;2022-08-19T08:58:09;27.20;89.40
1063;DHT22;520;50.932;6.962;2022-08-19T09:01:29;26.90;89.50
1063;DHT22;520;50.932;6.962;2022-08-19T09:04:18;27.30;88.80
1063;DHT22;520;50.932;6.962;2022-08-19T09:10:55;27.90;84.20
1063;DHT22;520;50.932;6.962;2022-08-19T09:20:41;27.30;85.30
1063;DHT22;520;50.932;6.962;2022-08-19T09:24:02;28.10;81.90
1063;DHT22;520;50.932;6.962;2022-08-19T09:27:39;28.80;79.00
1063;DHT22;520;50.932;6.962;2022-08-19T09:34:24;29.50;71.60
1063;DHT22;520;50.932;6.962;2022-08-19T09:37:00;30.50;70.00
1063;DHT22;520;50.932;6.962;2022-08-19T09:49:52;31.20;60.60
1063;DHT22;520;50.932;6.962;2022-08-19T09:52:59;31.20;61.10
1063;DHT22;520;50.932;6.962;2022-08-19T09:58:58;31.40;58.90
1063;DHT22;520;50.932;6.962;2022-08-19T10:02:31;31.30;59.10
1063;DHT22;520;50.932;6.962;2022-08-19T10:08:54;31.70;57.60
1063;DHT22;520;50.932;6.962;2022-08-19T10:11:42;31.20;57.10
1063;DHT22;520;50.932;6.962;2022-08-19T10:14:36;31.30;56.80
1063;DHT22;520;50.932;6.962;2022-08-19T10:17:22;31.90;55.80
1063;DHT22;520;50.932;6.962;2022-08-19T10:20:10;31.90;54.90
1063;DHT22;520;50.932;6.962;2022-08-19T10:23:04;31.40;55.80
1063;DHT22;520;50.932;6.962;2022-08-19T10:40:15;30.50;58.10
1063;DHT22;520;50.932;6.962;2022-08-19T10:43:02;29.90;59.70
1063;DHT22;520;50.932;6.962;2022-08-19T10:46:42;30.40;59.20
1063;DHT22;520;50.932;6.962;2022-08-19T10:53:08;30.70;57.80
1063;DHT22;520;50.932;6.962;2022-08-19T10:57:18;31.00;57.30
1063;DHT22;520;50.932;6.962;2022-08-19T11:00:54;31.40;56.50
1063;DHT22;520;50.932;6.962;2022-08-19T11:10:34;30.60;59.20
1063;DHT22;520;50.932;6.962;2022-08-19T11:16:39;29.70;60.50
1063;DHT22;520;50.932;6.962;2022-08-19T11:19:22;29.40;61.70
1063;DHT22;520;50.932;6.962;2022-08-19T11:22:06;29.40;61.20
1063;DHT22;520;50.932;6.962;2022-08-19T11:24:46;29.60;60.60
1063;DHT22;520;50.932;6.962;2022-08-19T11:27:49;29.70;59.60
1063;DHT22;520;50.932;6.962;2022-08-19T11:31:16;29.90;58.90
1063;DHT22;520;50.932;6.962;2022-08-19T11:37:41;30.10;58.20
1063;DHT22;520;50.932;6.962;2022-08-19T11:40:25;30.40;57.20
1063;DHT22;520;50.932;6.962;2022-08-19T11:42:54;30.40;56.80
1063;DHT22;520;50.932;6.962;2022-08-19T11:45:26;30.00;57.30
1063;DHT22;520;50.932;6.962;2022-08-19T11:48:06;29.70;58.10
1063;DHT22;520;50.932;6.962;2022-08-19T11:50:42;30.20;58.30
1063;DHT22;520;50.932;6.962;2022-08-19T11:53:12;30.60;56.20
1063;DHT22;520;50.932;6.962;2022-08-19T11:55:39;30.60;55.00
1063;DHT22;520;50.932;6.962;2022-08-19T11:58:13;30.90;55.50
1063;DHT22;520;50.932;6.962;2022-08-19T12:00:44;31.20;54.50
1063;DHT22;520;50.932;6.962;2022-08-19T12:03:14;31.00;54.50
1063;DHT22;520;50.932;6.962;2022-08-19T12:05:47;30.90;55.10
1063;DHT22;520;50.932;6.962;2022-08-19T12:08:23;30.50;56.10
1063;DHT22;520;50.932;6.962;2022-08-19T12:10:56;30.30;56.40
1063;DHT22;520;50.932;6.962;2022-08-19T12:13:29;30.00;57.10
1063;DHT22;520;50.932;6.962;2022-08-19T12:16:00;30.00;56.90
1063;DHT22;520;50.932;6.962;2022-08-19T12:18:42;30.10;56.60
1063;DHT22;520;50.932;6.962;2022-08-19T12:21:18;30.40;56.50
1063;DHT22;520;50.932;6.962;2022-08-19T12:23:59;30.50;55.80
1063;DHT22;520;50.932;6.962;2022-08-19T12:26:29;30.60;55.00
1063;DHT22;520;50.932;6.962;2022-08-19T12:28:58;30.80;54.80
1063;DHT22;520;50.932;6.962;2022-08-19T12:31:29;30.90;53.90
1063;DHT22;520;50.932;6.962;2022-08-19T12:33:59;30.80;54.00
1063;DHT22;520;50.932;6.962;2022-08-19T12:36:33;30.90;53.70
1063;DHT22;520;50.932;6.962;2022-08-19T12:39:04;31.00;53.70
1063;DHT22;520;50.932;6.962;2022-08-19T12:41:37;31.20;53.10
1063;DHT22;520;50.932;6.962;2022-08-19T12:44:16;31.50;52.70
1063;DHT22;520;50.932;6.962;2022-08-19T12:46:59;31.60;51.80
1063;DHT22;520;50.932;6.962;2022-08-19T12:49:33;31.50;52.00
1063;DHT22;520;50.932;6.962;2022-08-19T12:52:25;31.50;52.50
1063;DHT22;520;50.932;6.962;2022-08-19T12:54:59;31.40;52.80
1063;DHT22;520;50.932;6.962;2022-08-19T12:57:33;31.50;53.20
1063;DHT22;520;50.932;6.962;2022-08-19T13:00:18;31.60;52.20
1063;DHT22;520;50.932;6.962;2022-08-19T13:03:04;31.50;51.60
1063;DHT22;520;50.932;6.962;2022-08-19T13:05:43;31.40;51.00
1063;DHT22;520;50.932;6.962;2022-08-19T13:08:23;31.10;51.40
1063;DHT22;520;50.932;6.962;2022-08-19T13:10:55;30.70;52.70
1063;DHT22;520;50.932;6.962;2022-08-19T13:13:30;30.50;53.40
1063;DHT22;520;50.932;6.962;2022-08-19T13:16:03;30.50;53.60
1063;DHT22;520;50.932;6.962;2022-08-19T13:18:36;30.60;53.50
1063;DHT22;520;50.932;6.962;2022-08-19T13:21:22;31.10;53.00
1063;DHT22;520;50.932;6.962;2022-08-19T13:24:10;31.40;51.20
1063;DHT22;520;50.932;6.962;2022-08-19T13:27:04;31.30;51.00
1063;DHT22;520;50.932;6.962;2022-08-19T13:29:41;31.30;50.20
1063;DHT22;520;50.932;6.962;2022-08-19T13:32:48;31.20;50.40
1063;DHT22;520;50.932;6.962;2022-08-19T13:35:50;31.10;50.10
1063;DHT22;520;50.932;6.962;2022-08-19T13:38:31;31.30;49.70
1063;DHT22;520;50.932;6.962;2022-08-19T13:41:19;31.80;48.50
1063;DHT22;520;50.932;6.962;2022-08-19T13:47:34;31.20;49.20
1063;DHT22;520;50.932;6.962;2022-08-19T13:50:11;31.20;49.20
1063;DHT22;520;50.932;6.962;2022-08-19T13:52:47;31.40;49.00
1063;DHT22;520;50.932;6.962;2022-08-19T13:55:25;31.50;48.60
1063;DHT22;520;50.932;6.962;2022-08-19T13:58:01;31.60;48.30
1063;DHT22;520;50.932;6.962;2022-08-19T14:00:49;31.40;48.50
1063;DHT22;520;50.932;6.962;2022-08-19T14:03:37;31.50;48.60
1063;DHT22;520;50.932;6.962;2022-08-19T14:06:25;31.30;48.00
1063;DHT22;520;50.932;6.962;2022-08-19T14:09:16;31.20;48.20
1063;DHT22;520;50.932;6.962;2022-08-19T14:12:05;31.20;48.50
1063;DHT22;520;50.932;6.962;2022-08-19T14:17:49;31.10;48.10
1063;DHT22;520;50.932;6.962;2022-08-19T14:20:30;30.80;47.60
1063;DHT22;520;50.932;6.962;2022-08-19T14:23:25;30.80;48.60
1063;DHT22;520;50.932;6.962;2022-08-19T14:26:14;30.70;49.30
1063;DHT22;520;50.932;6.962;2022-08-19T14:28:54;30.60;49.80
1063;DHT22;520;50.932;6.962;2022-08-19T14:31:54;30.80;49.80
1063;DHT22;520;50.932;6.962;2022-08-19T14:35:02;30.70;49.70
1063;DHT22;520;50.932;6.962;2022-08-19T14:37:43;31.00;49.90
1063;DHT22;520;50.932;6.962;2022-08-19T14:40:28;31.00;49.30
1063;DHT22;520;50.932;6.962;2022-08-19T14:43:18;31.30;48.90
1063;DHT22;520;50.932;6.962;2022-08-19T14:45:49;31.00;49.50
1063;DHT22;520;50.932;6.962;2022-08-19T14:48:21;30.80;49.70
1063;DHT22;520;50.932;6.962;2022-08-19T14:51:03;30.70;49.50
1063;DHT22;520;50.932;6.962;2022-08-19T14:53:48;30.80;49.30
1063;DHT22;520;50.932;6.962;2022-08-19T14:56:31;30.80;49.90
1063;DHT22;520;50.932;6.962;2022-08-19T14:59:03;30.80;50.00
1063;DHT22;520;50.932;6.962;2022-08-19T15:01:35;31.00;48.90
1063;DHT22;520;50.932;6.962;2022-08-19T15:04:11;31.00;48.90
1063;DHT22;520;50.932;6.962;2022-08-19T15:06:45;30.90;49.00
1063;DHT22;520;50.932;6.962;2022-08-19T15:09:20;30.70;49.00
1063;DHT22;520;50.932;6.962;2022-08-19T15:11:50;30.80;48.60
1063;DHT22;520;50.932;6.962;2022-08-19T15:14:21;30.80;48.50
1063;DHT22;520;50.932;6.962;2022-08-19T15:16:57;30.70;48.10
1063;DHT22;520;50.932;6.962;2022-08-19T15:19:54;30.50;47.80
1063;DHT22;520;50.932;6.962;2022-08-19T15:22:45;30.40;48.30
1063;DHT22;520;50.932;6.962;2022-08-19T15:25:29;30.40;48.10
1063;DHT22;520;50.932;6.962;2022-08-19T15:28:01;30.50;48.00
1063;DHT22;520;50.932;6.962;2022-08-19T15:31:05;30.40;48.30
1063;DHT22;520;50.932;6.962;2022-08-19T15:34:03;30.30;48.60
1063;DHT22;520;50.932;6.962;2022-08-19T15:36:54;30.30;48.30
1063;DHT22;520;50.932;6.962;2022-08-19T15:39:33;30.10;48.40
1063;DHT22;520;50.932;6.962;2022-08-19T15:42:17;30.10;48.20
1063;DHT22;520;50.932;6.962;2022-08-19T15:45:16;30.20;48.20
1063;DHT22;520;50.932;6.962;2022-08-19T15:48:01;30.00;48.60
1063;DHT22;520;50.932;6.962;2022-08-19T15:50:30;29.90;49.30
1063;DHT22;520;50.932;6.962;2022-08-19T15:53:07;29.80;49.50
1063;DHT22;520;50.932;6.962;2022-08-19T15:55:40;29.70;49.70
1063;DHT22;520;50.932;6.962;2022-08-19T15:58:15;29.80;50.20
1063;DHT22;520;50.932;6.962;2022-08-19T16:01:07;29.90;50.90
1063;DHT22;520;50.932;6.962;2022-08-19T16:03:58;30.00;51.00
1063;DHT22;520;50.932;6.962;2022-08-19T16:06:53;30.00;51.10
1063;DHT22;520;50.932;6.962;2022-08-19T16:09:25;29.70;51.90
1063;DHT22;520;50.932;6.962;2022-08-19T16:12:02;29.60;52.50
1063;DHT22;520;50.932;6.962;2022-08-19T16:14:32;29.60;52.90
1063;DHT22;520;50.932;6.962;2022-08-19T16:17:00;29.50;53.20
1063;DHT22;520;50.932;6.962;2022-08-19T16:19:28;29.50;53.60
1063;DHT22;520;50.932;6.962;2022-08-19T16:24:47;29.40;53.90
1063;DHT22;520;50.932;6.962;2022-08-19T16:27:19;29.50;54.20
1063;DHT22;520;50.932;6.962;2022-08-19T16:30:03;29.40;54.20
1063;DHT22;520;50.932;6.962;2022-08-19T16:32:42;29.40;54.60
1063;DHT22;520;50.932;6.962;2022-08-19T16:35:13;29.40;54.30
1063;DHT22;520;50.932;6.962;2022-08-19T16:37:43;29.40;54.60
1063;DHT22;520;50.932;6.962;2022-08-19T16:40:11;29.40;54.60
1063;DHT22;520;50.932;6.962;2022-08-19T16:42:45;29.30;54.70
1063;DHT22;520;50.932;6.962;2022-08-19T16:45:20;29.00;55.10
1063;DHT22;520;50.932;6.962;2022-08-19T16:47:58;28.90;55.50
1063;DHT22;520;50.932;6.962;2022-08-19T16:50:30;28.80;55.70
1063;DHT22;520;50.932;6.962;2022-08-19T16:53:16;28.90;55.80
1063;DHT22;520;50.932;6.962;2022-08-19T16:55:54;29.00;55.80
1063;DHT22;520;50.932;6.962;2022-08-19T16:58:26;29.10;55.50
1063;DHT22;520;50.932;6.962;2022-08-19T17:00:57;29.00;55.80
1063;DHT22;520;50.932;6.962;2022-08-19T17:03:32;28.90;56.50
1063;DHT22;520;50.932;6.962;2022-08-19T17:06:15;28.80;57.00
1063;DHT22;520;50.932;6.962;2022-08-19T17:08:55;28.70;57.50
1063;DHT22;520;50.932;6.962;2022-08-19T17:11:27;28.60;57.80
1063;DHT22;520;50.932;6.962;2022-08-19T17:13:56;28.50;58.40
1063;DHT22;520;50.932;6.962;2022-08-19T17:16:32;28.40;58.70
1063;DHT22;520;50.932;6.962;2022-08-19T17:19:01;28.40;58.90
1063;DHT22;520;50.932;6.962;2022-08-19T17:21:35;28.40;59.00
1063;DHT22;520;50.932;6.962;2022-08-19T17:24:11;28.50;59.70
1063;DHT22;520;50.932;6.962;2022-08-19T17:26:43;28.50;59.10
1063;DHT22;520;50.932;6.962;2022-08-19T17:29:10;28.40;59.30
1063;DHT22;520;50.932;6.962;2022-08-19T17:31:43;28.30;59.60
1063;DHT22;520;50.932;6.962;2022-08-19T17:34:10;28.30;59.90
1063;DHT22;520;50.932;6.962;2022-08-19T17:36:39;28.30;60.00
1063;DHT22;520;50.932;6.962;2022-08-19T17:39:11;28.30;60.50
1063;DHT22;520;50.932;6.962;2022-08-19T17:41:40;28.10;61.90
1063;DHT22;520;50.932;6.962;2022-08-19T17:44:21;28.10;62.30
1063;DHT22;520;50.932;6.962;2022-08-19T17:46:53;28.00;64.90
1063;DHT22;520;50.932;6.962;2022-08-19T17:49:29;27.80;67.40
1063;DHT22;520;50.932;6.962;2022-08-19T17:52:02;27.90;66.70
1063;DHT22;520;50.932;6.962;2022-08-19T17:54:35;27.80;67.20
1063;DHT22;520;50.932;6.962;2022-08-19T17:57:21;27.70;67.50
1063;DHT22;520;50.932;6.962;2022-08-19T17:59:52;27.70;67.40
1063;DHT22;520;50.932;6.962;2022-08-19T18:02:24;27.60;67.90
1063;DHT22;520;50.932;6.962;2022-08-19T18:04:54;27.60;68.20
1063;DHT22;520;50.932;6.962;2022-08-19T18:07:24;27.60;68.50
1063;DHT22;520;50.932;6.962;2022-08-19T18:10:03;27.50;68.80
1063;DHT22;520;50.932;6.962;2022-08-19T18:12:33;27.40;69.30
1063;DHT22;520;50.932;6.962;2022-08-19T18:15:07;27.40;69.60
1063;DHT22;520;50.932;6.962;2022-08-19T18:17:37;27.30;70.00
1063;DHT22;520;50.932;6.962;2022-08-19T18:20:10;27.30;70.40
1063;DHT22;520;50.932;6.962;2022-08-19T18:22:47;27.30;70.40
1063;DHT22;520;50.932;6.962;2022-08-19T18:25:26;27.30;70.30
1063;DHT22;520;50.932;6.962;2022-08-19T18:28:02;27.20;70.30
1063;DHT22;520;50.932;6.962;2022-08-19T18:30:37;27.20;70.70
1063;DHT22;520;50.932;6.962;2022-08-19T18:33:13;27.20;71.00
1063;DHT22;520;50.932;6.962;2022-08-19T18:35:48;27.10;71.20
1063;DHT22;520;50.932;6.962;2022-08-19T18:38:21;27.10;71.90
1063;DHT22;520;50.932;6.962;2022-08-19T18:41:10;27.00;72.20
1063;DHT22;520;50.932;6.962;2022-08-19T18:43:59;26.90;72.70
1063;DHT22;520;50.932;6.962;2022-08-19T18:46:50;26.90;73.20
1063;DHT22;520;50.932;6.962;2022-08-19T18:49:46;26.90;73.60
1063;DHT22;520;50.932;6.962;2022-08-19T18:52:50;26.90;74.10
1063;DHT22;520;50.932;6.962;2022-08-19T18:55:17;26.80;74.70
1063;DHT22;520;50.932;6.962;2022-08-19T18:57:46;26.80;75.10
1063;DHT22;520;50.932;6.962;2022-08-19T19:00:14;26.80;75.60
1063;DHT22;520;50.932;6.962;2022-08-19T19:02:57;26.70;76.00
1063;DHT22;520;50.932;6.962;2022-08-19T19:05:34;26.70;76.50
1063;DHT22;520;50.932;6.962;2022-08-19T19:08:11;26.70;76.70
1063;DHT22;520;50.932;6.962;2022-08-19T19:10:39;26.70;76.60
1063;DHT22;520;50.932;6.962;2022-08-19T19:13:19;26.70;76.70
1063;DHT22;520;50.932;6.962;2022-08-19T19:15:49;26.70;76.90
1063;DHT22;520;50.932;6.962;2022-08-19T19:18:21;26.60;77.00
1063;DHT22;520;50.932;6.962;2022-08-19T19:20:52;26.60;77.40
1063;DHT22;520;50.932;6.962;2022-08-19T19:23:23;26.60;77.40
1063;DHT22;520;50.932;6.962;2022-08-19T19:25:58;26.60;77.50
1063;DHT22;520;50.932;6.962;2022-08-19T19:28:36;26.50;77.70
1063;DHT22;520;50.932;6.962;2022-08-19T19:31:20;26.40;78.00
1063;DHT22;520;50.932;6.962;2022-08-19T19:33:57;26.30;79.30
1063;DHT22;520;50.932;6.962;2022-08-19T19:36:25;26.10;81.10
1063;DHT22;520;50.932;6.962;2022-08-19T19:39:01;26.00;81.90
1063;DHT22;520;50.932;6.962;2022-08-19T19:41:37;25.90;82.60
1063;DHT22;520;50.932;6.962;2022-08-19T19:44:04;25.80;83.50
1063;DHT22;520;50.932;6.962;2022-08-19T19:46:54;25.80;84.40
1063;DHT22;520;50.932;6.962;2022-08-19T19:49:33;25.70;86.50
1063;DHT22;520;50.932;6.962;2022-08-19T19:52:04;25.60;88.10
1063;DHT22;520;50.932;6.962;2022-08-19T19:55:05;25.60;89.70
1063;DHT22;520;50.932;6.962;2022-08-19T20:00:35;25.80;92.10
1063;DHT22;520;50.932;6.962;2022-08-19T20:03:06;25.80;91.80
1063;DHT22;520;50.932;6.962;2022-08-19T20:05:43;25.80;92.10
1063;DHT22;520;50.932;6.962;2022-08-19T20:08:29;25.80;92.00
1063;DHT22;520;50.932;6.962;2022-08-19T20:11:53;25.70;91.80
1063;DHT22;520;50.932;6.962;2022-08-19T20:16:52;25.50;92.40
1063;DHT22;520;50.932;6.962;2022-08-19T20:19:23;25.50;92.60
1063;DHT22;520;50.932;6.962;2022-08-19T20:21:52;25.40;93.00
1063;DHT22;520;50.932;6.962;2022-08-19T20:24:25;25.40;93.60
1063;DHT22;520;50.932;6.962;2022-08-19T20:26:59;25.20;94.10
1063;DHT22;520;50.932;6.962;2022-08-19T20:29:27;25.20;94.70
1063;DHT22;520;50.932;6.962;2022-08-19T20:32:05;25.10;95.10
1063;DHT22;520;50.932;6.962;2022-08-19T20:34:39;25.00;95.50
1063;DHT22;520;50.932;6.962;2022-08-19T20:37:06;24.90;95.90
1063;DHT22;520;50.932;6.962;2022-08-19T20:39:35;24.80;96.00
1063;DHT22;520;50.932;6.962;2022-08-19T20:42:05;24.60;96.20
1063;DHT22;520;50.932;6.962;2022-08-19T20:44:35;24.60;96.40
1063;DHT22;520;50.932;6.962;2022-08-19T20:47:05;24.60;96.70
1063;DHT22;520;50.932;6.962;2022-08-19T20:49:36;24.60;97.00
1063;DHT22;520;50.932;6.962;2022-08-19T20:52:05;24.70;97.00
1063;DHT22;520;50.932;6.962;2022-08-19T20:54:34;24.70;97.00
1063;DHT22;520;50.932;6.962;2022-08-19T20:57:05;24.60;97.00
1063;DHT22;520;50.932;6.962;2022-08-19T20:59:34;24.60;97.10
1063;DHT22;520;50.932;6.962;2022-08-19T21:02:02;24.60;97.20
1063;DHT22;520;50.932;6.962;2022-08-19T21:04:30;24.60;97.40
1063;DHT22;520;50.932;6.962;2022-08-19T21:06:59;24.50;97.50
1063;DHT22;520;50.932;6.962;2022-08-19T21:09:26;24.50;97.60
1063;DHT22;520;50.932;6.962;2022-08-19T21:11:53;24.50;97.90
1063;DHT22;520;50.932;6.962;2022-08-19T21:14:19;24.50;98.00
1063;DHT22;520;50.932;6.962;2022-08-19T21:16:46;24.50;98.00
1063;DHT22;520;50.932;6.962;2022-08-19T21:19:15;24.50;98.00
1063;DHT22;520;50.932;6.962;2022-08-19T21:21:49;24.50;98.30
1063;DHT22;520;50.932;6.962;2022-08-19T21:24:16;24.40;98.40
1063;DHT22;520;50.932;6.962;2022-08-19T21:26:43;24.40;98.60
1063;DHT22;520;50.932;6.962;2022-08-19T21:29:14;24.30;98.80
1063;DHT22;520;50.932;6.962;2022-08-19T21:31:42;24.30;99.00
1063;DHT22;520;50.932;6.962;2022-08-19T21:34:09;24.30;99.00
1063;DHT22;520;50.932;6.962;2022-08-19T21:36:36;24.40;98.80
1063;DHT22;520;50.932;6.962;2022-08-19T21:39:04;24.40;98.80
1063;DHT22;520;50.932;6.962;2022-08-19T21:41:32;24.40;98.80
1063;DHT22;520;50.932;6.962;2022-08-19T21:43:59;24.40;98.90
1063;DHT22;520;50.932;6.962;2022-08-19T21:46:31;24.40;99.00
1063;DHT22;520;50.932;6.962;2022-08-19T21:49:02;24.30;99.00
1063;DHT22;520;50.932;6.962;2022-08-19T21:51:31;24.30;99.10
1063;DHT22;520;50.932;6.962;2022-08-19T21:53:58;24.30;99.50
1063;DHT22;520;50.932;6.962;2022-08-19T21:56:24;24.20;99.10
1063;DHT22;520;50.932;6.962;2022-08-19T21:58:51;24.20;99.20